sensor_id;sensor_type;location;lat;lon;timestamp;P1;durP1;ratioP1;P2;durP2;ratioP2
29168;SDS011;16219;42.864;23.360;2023-04-03T00:01:42;5.07;;;0.77;;
29168;SDS011;16219;42.864;23.360;2023-04-03T00:04:09;0.73;;;0.63;;
29168;SDS011;16219;42.864;23.360;2023-04-03T00:06:36;0.88;;;0.88;;
29168;SDS011;16219;42.864;23.360;2023-04-03T00:09:03;0.90;;;0.82;;
29168;SDS011;16219;42.864;23.360;2023-04-03T00:11:31;0.80;;;0.80;;
29168;SDS011;16219;42.864;23.360;2023-04-03T00:13:58;1.10;;;0.95;;
29168;SDS011;16219;42.864;23.360;2023-04-03T00:16:26;0.70;;;0.70;;
29168;SDS011;16219;42.864;23.360;2023-04-03T00:18:53;0.70;;;0.65;;
29168;SDS011;16219;42.864;23.360;2023-04-03T00:21:20;7.18;;;1.27;;
29168;SDS011;16219;42.864;23.360;2023-04-03T00:23:47;1.35;;;1.25;;
29168;SDS011;16219;42.864;23.360;2023-04-03T00:26:14;1.17;;;1.13;;
29168;SDS011;16219;42.864;23.360;2023-04-03T00:28:41;1.35;;;1.25;;
29168;SDS011;16219;42.864;23.360;2023-04-03T00:31:08;1.85;;;1.08;;
29168;SDS011;16219;42.864;23.360;2023-04-03T00:33:37;1.45;;;1.23;;
29168;SDS011;16219;42.864;23.360;2023-04-03T00:36:07;0.88;;;0.88;;
29168;SDS011;16219;42.864;23.360;2023-04-03T00:38:34;0.95;;;0.85;;
29168;SDS011;16219;42.864;23.360;2023-04-03T00:41:01;1.48;;;1.17;;
29168;SDS011;16219;42.864;23.360;2023-04-03T00:43:29;0.45;;;0.45;;
29168;SDS011;16219;42.864;23.360;2023-04-03T00:45:56;3.13;;;0.90;;
29168;SDS011;16219;42.864;23.360;2023-04-03T00:48:24;0.43;;;0.43;;
29168;SDS011;16219;42.864;23.360;2023-04-03T00:50:55;2.15;;;1.05;;
29168;SDS011;16219;42.864;23.360;2023-04-03T00:53:24;1.42;;;0.82;;
29168;SDS011;16219;42.864;23.360;2023-04-03T00:55:54;1.00;;;1.00;;
29168;SDS011;16219;42.864;23.360;2023-04-03T00:58:22;0.52;;;0.52;;
29168;SDS011;16219;42.864;23.360;2023-04-03T01:00:55;0.85;;;0.65;;
29168;SDS011;16219;42.864;23.360;2023-04-03T01:03:25;0.70;;;0.70;;
29168;SDS011;16219;42.864;23.360;2023-04-03T01:05:53;3.28;;;0.95;;
29168;SDS011;16219;42.864;23.360;2023-04-03T01:08:21;1.17;;;0.95;;
29168;SDS011;16219;42.864;23.360;2023-04-03T01:10:48;0.82;;;0.82;;
29168;SDS011;16219;42.864;23.360;2023-04-03T01:13:21;0.60;;;0.60;;
29168;SDS011;16219;42.864;23.360;2023-04-03T01:15:50;1.23;;;1.00;;
29168;SDS011;16219;42.864;23.360;2023-04-03T01:18:17;0.90;;;0.90;;
29168;SDS011;16219;42.864;23.360;2023-04-03T01:20:50;1.25;;;1.15;;
29168;SDS011;16219;42.864;23.360;2023-04-03T01:23:54;0.77;;;0.77;;
29168;SDS011;16219;42.864;23.360;2023-04-03T01:26:26;0.52;;;0.52;;
29168;SDS011;16219;42.864;23.360;2023-04-03T01:28:54;0.95;;;0.88;;
29168;SDS011;16219;42.864;23.360;2023-04-03T01:31:22;0.70;;;0.70;;
29168;SDS011;16219;42.864;23.360;2023-04-03T01:33:55;1.27;;;0.70;;
29168;SDS011;16219;42.864;23.360;2023-04-03T01:36:23;0.90;;;0.90;;
29168;SDS011;16219;42.864;23.360;2023-04-03T01:38:52;0.98;;;0.90;;
29168;SDS011;16219;42.864;23.360;2023-04-03T01:41:19;1.13;;;1.02;;
29168;SDS011;16219;42.864;23.360;2023-04-03T01:43:47;0.40;;;0.40;;
29168;SDS011;16219;42.864;23.360;2023-04-03T01:46:14;0.90;;;0.47;;
29168;SDS011;16219;42.864;23.360;2023-04-03T01:48:42;0.68;;;0.68;;
29168;SDS011;16219;42.864;23.360;2023-04-03T01:51:11;0.77;;;0.55;;
29168;SDS011;16219;42.864;23.360;2023-04-03T01:53:38;0.45;;;0.45;;
29168;SDS011;16219;42.864;23.360;2023-04-03T01:56:05;0.68;;;0.68;;
29168;SDS011;16219;42.864;23.360;2023-04-03T01:58:33;1.05;;;1.05;;
29168;SDS011;16219;42.864;23.360;2023-04-03T02:01:00;1.17;;;1.13;;
29168;SDS011;16219;42.864;23.360;2023-04-03T02:03:28;1.10;;;1.00;;
29168;SDS011;16219;42.864;23.360;2023-04-03T02:05:56;0.70;;;0.70;;
29168;SDS011;16219;42.864;23.360;2023-04-03T02:08:24;0.77;;;0.77;;
29168;SDS011;16219;42.864;23.360;2023-04-03T02:10:51;0.70;;;0.70;;
29168;SDS011;16219;42.864;23.360;2023-04-03T02:13:19;0.93;;;0.90;;
29168;SDS011;16219;42.864;23.360;2023-04-03T02:15:46;0.75;;;0.75;;
29168;SDS011;16219;42.864;23.360;2023-04-03T02:18:15;0.90;;;0.90;;
29168;SDS011;16219;42.864;23.360;2023-04-03T02:20:43;0.40;;;0.40;;
29168;SDS011;16219;42.864;23.360;2023-04-03T02:23:10;0.80;;;0.80;;
29168;SDS011;16219;42.864;23.360;2023-04-03T02:25:38;1.00;;;1.00;;
29168;SDS011;16219;42.864;23.360;2023-04-03T02:28:05;1.42;;;1.33;;
29168;SDS011;16219;42.864;23.360;2023-04-03T02:30:32;2.88;;;1.67;;
29168;SDS011;16219;42.864;23.360;2023-04-03T02:32:59;2.60;;;1.80;;
29168;SDS011;16219;42.864;23.360;2023-04-03T02:35:27;0.80;;;0.80;;
29168;SDS011;16219;42.864;23.360;2023-04-03T02:37:56;0.82;;;0.82;;
29168;SDS011;16219;42.864;23.360;2023-04-03T02:40:23;2.65;;;1.58;;
29168;SDS011;16219;42.864;23.360;2023-04-03T02:42:52;0.80;;;0.80;;
29168;SDS011;16219;42.864;23.360;2023-04-03T02:45:19;1.23;;;1.15;;
29168;SDS011;16219;42.864;23.360;2023-04-03T02:47:46;1.52;;;0.93;;
29168;SDS011;16219;42.864;23.360;2023-04-03T02:50:13;1.20;;;1.00;;
29168;SDS011;16219;42.864;23.360;2023-04-03T02:52:40;0.90;;;0.90;;
29168;SDS011;16219;42.864;23.360;2023-04-03T02:55:08;1.50;;;1.20;;
29168;SDS011;16219;42.864;23.360;2023-04-03T02:57:35;1.20;;;1.10;;
29168;SDS011;16219;42.864;23.360;2023-04-03T03:00:04;0.75;;;0.75;;
29168;SDS011;16219;42.864;23.360;2023-04-03T03:02:33;2.33;;;1.45;;
29168;SDS011;16219;42.864;23.360;2023-04-03T03:05:00;1.20;;;0.75;;
29168;SDS011;16219;42.864;23.360;2023-04-03T03:07:27;0.40;;;0.40;;
29168;SDS011;16219;42.864;23.360;2023-04-03T03:09:54;1.23;;;0.85;;
29168;SDS011;16219;42.864;23.360;2023-04-03T03:12:20;0.60;;;0.60;;
29168;SDS011;16219;42.864;23.360;2023-04-03T03:14:49;0.77;;;0.63;;
29168;SDS011;16219;42.864;23.360;2023-04-03T03:17:17;1.15;;;1.05;;
29168;SDS011;16219;42.864;23.360;2023-04-03T03:19:44;1.15;;;0.90;;
29168;SDS011;16219;42.864;23.360;2023-04-03T03:22:12;1.38;;;1.27;;
29168;SDS011;16219;42.864;23.360;2023-04-03T03:24:39;0.70;;;0.70;;
29168;SDS011;16219;42.864;23.360;2023-04-03T03:27:06;2.08;;;1.23;;
29168;SDS011;16219;42.864;23.360;2023-04-03T03:29:33;1.40;;;1.17;;
29168;SDS011;16219;42.864;23.360;2023-04-03T03:32:02;0.75;;;0.57;;
29168;SDS011;16219;42.864;23.360;2023-04-03T03:34:30;0.60;;;0.60;;
29168;SDS011;16219;42.864;23.360;2023-04-03T03:36:58;1.15;;;1.05;;
29168;SDS011;16219;42.864;23.360;2023-04-03T03:39:25;0.47;;;0.47;;
29168;SDS011;16219;42.864;23.360;2023-04-03T03:41:52;3.10;;;1.30;;
29168;SDS011;16219;42.864;23.360;2023-04-03T03:44:20;0.63;;;0.63;;
29168;SDS011;16219;42.864;23.360;2023-04-03T03:46:47;2.00;;;0.98;;
29168;SDS011;16219;42.864;23.360;2023-04-03T03:49:15;0.60;;;0.60;;
29168;SDS011;16219;42.864;23.360;2023-04-03T03:51:43;1.45;;;1.13;;
29168;SDS011;16219;42.864;23.360;2023-04-03T03:54:11;0.80;;;0.80;;
29168;SDS011;16219;42.864;23.360;2023-04-03T03:56:38;2.13;;;1.45;;
29168;SDS011;16219;42.864;23.360;2023-04-03T03:59:05;0.90;;;0.90;;
29168;SDS011;16219;42.864;23.360;2023-04-03T04:01:33;3.88;;;1.35;;
29168;SDS011;16219;42.864;23.360;2023-04-03T04:04:01;1.27;;;0.95;;
29168;SDS011;16219;42.864;23.360;2023-04-03T04:06:30;1.35;;;1.27;;
29168;SDS011;16219;42.864;23.360;2023-04-03T04:09:03;1.35;;;1.13;;
29168;SDS011;16219;42.864;23.360;2023-04-03T04:11:30;1.10;;;0.90;;
29168;SDS011;16219;42.864;23.360;2023-04-03T04:13:59;1.58;;;1.40;;
29168;SDS011;16219;42.864;23.360;2023-04-03T04:16:28;2.60;;;1.35;;
29168;SDS011;16219;42.864;23.360;2023-04-03T04:18:58;0.90;;;0.90;;
29168;SDS011;16219;42.864;23.360;2023-04-03T04:21:25;0.98;;;0.95;;
29168;SDS011;16219;42.864;23.360;2023-04-03T04:23:53;1.00;;;1.00;;
29168;SDS011;16219;42.864;23.360;2023-04-03T04:26:21;1.00;;;0.82;;
29168;SDS011;16219;42.864;23.360;2023-04-03T04:28:49;1.90;;;1.52;;
29168;SDS011;16219;42.864;23.360;2023-04-03T04:31:17;1.48;;;1.38;;
29168;SDS011;16219;42.864;23.360;2023-04-03T04:33:45;0.68;;;0.68;;
29168;SDS011;16219;42.864;23.360;2023-04-03T04:36:14;8.00;;;0.80;;
29168;SDS011;16219;42.864;23.360;2023-04-03T04:38:43;20.20;;;1.13;;
29168;SDS011;16219;42.864;23.360;2023-04-03T04:41:11;1.48;;;1.38;;
29168;SDS011;16219;42.864;23.360;2023-04-03T04:43:39;1.45;;;1.35;;
29168;SDS011;16219;42.864;23.360;2023-04-03T04:46:09;5.13;;;2.47;;
29168;SDS011;16219;42.864;23.360;2023-04-03T04:48:42;1.65;;;1.45;;
29168;SDS011;16219;42.864;23.360;2023-04-03T04:51:10;4.50;;;1.63;;
29168;SDS011;16219;42.864;23.360;2023-04-03T04:53:38;3.88;;;2.05;;
29168;SDS011;16219;42.864;23.360;2023-04-03T04:56:06;2.10;;;1.80;;
29168;SDS011;16219;42.864;23.360;2023-04-03T04:58:36;6.30;;;4.07;;
29168;SDS011;16219;42.864;23.360;2023-04-03T05:01:05;4.85;;;3.72;;
29168;SDS011;16219;42.864;23.360;2023-04-03T05:03:38;7.25;;;3.55;;
29168;SDS011;16219;42.864;23.360;2023-04-03T05:06:05;2.80;;;2.60;;
29168;SDS011;16219;42.864;23.360;2023-04-03T05:08:34;6.90;;;4.95;;
29168;SDS011;16219;42.864;23.360;2023-04-03T05:11:02;13.50;;;8.05;;
29168;SDS011;16219;42.864;23.360;2023-04-03T05:13:30;7.60;;;5.18;;
29168;SDS011;16219;42.864;23.360;2023-04-03T05:15:57;23.80;;;8.00;;
29168;SDS011;16219;42.864;23.360;2023-04-03T05:18:26;7.47;;;5.72;;
29168;SDS011;16219;42.864;23.360;2023-04-03T05:20:55;6.47;;;4.38;;
29168;SDS011;16219;42.864;23.360;2023-04-03T05:23:24;8.98;;;4.00;;
29168;SDS011;16219;42.864;23.360;2023-04-03T05:25:52;3.22;;;2.92;;
29168;SDS011;16219;42.864;23.360;2023-04-03T05:28:20;2.42;;;1.83;;
29168;SDS011;16219;42.864;23.360;2023-04-03T05:30:52;2.22;;;2.03;;
29168;SDS011;16219;42.864;23.360;2023-04-03T05:33:21;3.42;;;2.58;;
29168;SDS011;16219;42.864;23.360;2023-04-03T05:35:52;4.80;;;2.58;;
29168;SDS011;16219;42.864;23.360;2023-04-03T05:38:24;4.68;;;2.58;;
29168;SDS011;16219;42.864;23.360;2023-04-03T05:40:54;4.50;;;2.45;;
29168;SDS011;16219;42.864;23.360;2023-04-03T05:43:21;23.20;;;15.68;;
29168;SDS011;16219;42.864;23.360;2023-04-03T05:45:50;32.28;;;13.85;;
29168;SDS011;16219;42.864;23.360;2023-04-03T05:48:18;20.50;;;11.18;;
29168;SDS011;16219;42.864;23.360;2023-04-03T05:50:45;10.32;;;6.93;;
29168;SDS011;16219;42.864;23.360;2023-04-03T05:53:20;11.63;;;7.72;;
29168;SDS011;16219;42.864;23.360;2023-04-03T05:55:49;25.33;;;7.97;;
29168;SDS011;16219;42.864;23.360;2023-04-03T05:58:17;8.45;;;4.80;;
29168;SDS011;16219;42.864;23.360;2023-04-03T06:00:46;6.53;;;3.58;;
29168;SDS011;16219;42.864;23.360;2023-04-03T06:03:14;6.03;;;4.57;;
29168;SDS011;16219;42.864;23.360;2023-04-03T06:05:41;8.48;;;4.68;;
29168;SDS011;16219;42.864;23.360;2023-04-03T06:08:10;3.20;;;2.72;;
29168;SDS011;16219;42.864;23.360;2023-04-03T06:10:39;2.92;;;2.72;;
29168;SDS011;16219;42.864;23.360;2023-04-03T06:13:06;2.38;;;2.17;;
29168;SDS011;16219;42.864;23.360;2023-04-03T06:15:33;5.95;;;2.63;;
29168;SDS011;16219;42.864;23.360;2023-04-03T06:18:00;3.28;;;2.22;;
29168;SDS011;16219;42.864;23.360;2023-04-03T06:20:28;4.15;;;2.50;;
29168;SDS011;16219;42.864;23.360;2023-04-03T06:22:56;3.50;;;2.13;;
29168;SDS011;16219;42.864;23.360;2023-04-03T06:25:23;1.73;;;1.63;;
29168;SDS011;16219;42.864;23.360;2023-04-03T06:27:51;3.65;;;1.55;;
29168;SDS011;16219;42.864;23.360;2023-04-03T06:30:20;0.95;;;0.93;;
29168;SDS011;16219;42.864;23.360;2023-04-03T06:32:47;0.63;;;0.63;;
29168;SDS011;16219;42.864;23.360;2023-04-03T06:35:15;1.00;;;1.00;;
29168;SDS011;16219;42.864;23.360;2023-04-03T06:37:42;1.45;;;1.35;;
29168;SDS011;16219;42.864;23.360;2023-04-03T06:40:11;1.08;;;1.08;;
29168;SDS011;16219;42.864;23.360;2023-04-03T06:42:45;1.63;;;1.35;;
29168;SDS011;16219;42.864;23.360;2023-04-03T06:45:14;1.48;;;1.38;;
29168;SDS011;16219;42.864;23.360;2023-04-03T06:47:41;1.40;;;1.08;;
29168;SDS011;16219;42.864;23.360;2023-04-03T06:50:09;0.70;;;0.70;;
29168;SDS011;16219;42.864;23.360;2023-04-03T06:52:39;1.50;;;1.23;;
29168;SDS011;16219;42.864;23.360;2023-04-03T06:55:07;1.40;;;1.30;;
29168;SDS011;16219;42.864;23.360;2023-04-03T06:57:35;1.00;;;0.93;;
29168;SDS011;16219;42.864;23.360;2023-04-03T07:00:03;1.42;;;1.27;;
29168;SDS011;16219;42.864;23.360;2023-04-03T07:02:32;0.73;;;0.73;;
29168;SDS011;16219;42.864;23.360;2023-04-03T07:04:59;1.00;;;1.00;;
29168;SDS011;16219;42.864;23.360;2023-04-03T07:07:26;0.43;;;0.43;;
29168;SDS011;16219;42.864;23.360;2023-04-03T07:09:53;1.48;;;1.17;;
29168;SDS011;16219;42.864;23.360;2023-04-03T07:12:20;11.70;;;3.80;;
29168;SDS011;16219;42.864;23.360;2023-04-03T07:14:47;0.80;;;0.80;;
29168;SDS011;16219;42.864;23.360;2023-04-03T07:17:14;0.73;;;0.73;;
29168;SDS011;16219;42.864;23.360;2023-04-03T07:19:43;0.73;;;0.73;;
29168;SDS011;16219;42.864;23.360;2023-04-03T07:22:10;1.77;;;1.55;;
29168;SDS011;16219;42.864;23.360;2023-04-03T07:24:37;1.98;;;1.58;;
29168;SDS011;16219;42.864;23.360;2023-04-03T07:27:04;2.00;;;1.85;;
29168;SDS011;16219;42.864;23.360;2023-04-03T07:29:33;2.20;;;2.00;;
29168;SDS011;16219;42.864;23.360;2023-04-03T07:32:00;2.47;;;1.27;;
29168;SDS011;16219;42.864;23.360;2023-04-03T07:34:27;4.18;;;1.52;;
29168;SDS011;16219;42.864;23.360;2023-04-03T07:36:57;2.95;;;1.52;;
29168;SDS011;16219;42.864;23.360;2023-04-03T07:39:24;1.08;;;1.00;;
29168;SDS011;16219;42.864;23.360;2023-04-03T07:41:51;1.80;;;1.65;;
29168;SDS011;16219;42.864;23.360;2023-04-03T07:44:18;1.33;;;1.23;;
29168;SDS011;16219;42.864;23.360;2023-04-03T07:46:45;1.13;;;1.10;;
29168;SDS011;16219;42.864;23.360;2023-04-03T07:49:12;1.85;;;1.23;;
29168;SDS011;16219;42.864;23.360;2023-04-03T07:51:39;1.27;;;1.00;;
29168;SDS011;16219;42.864;23.360;2023-04-03T07:54:08;1.17;;;1.00;;
29168;SDS011;16219;42.864;23.360;2023-04-03T07:56:35;0.65;;;0.65;;
29168;SDS011;16219;42.864;23.360;2023-04-03T07:59:02;0.60;;;0.60;;
29168;SDS011;16219;42.864;23.360;2023-04-03T08:01:29;7.78;;;1.10;;
29168;SDS011;16219;42.864;23.360;2023-04-03T08:03:57;0.70;;;0.70;;
29168;SDS011;16219;42.864;23.360;2023-04-03T08:06:25;1.65;;;0.90;;
29168;SDS011;16219;42.864;23.360;2023-04-03T08:08:52;2.20;;;0.85;;
29168;SDS011;16219;42.864;23.360;2023-04-03T08:11:20;1.25;;;1.00;;
29168;SDS011;16219;42.864;23.360;2023-04-03T08:13:48;0.50;;;0.50;;
29168;SDS011;16219;42.864;23.360;2023-04-03T08:16:17;1.15;;;1.05;;
29168;SDS011;16219;42.864;23.360;2023-04-03T08:18:46;0.50;;;0.50;;
29168;SDS011;16219;42.864;23.360;2023-04-03T08:21:14;0.65;;;0.65;;
29168;SDS011;16219;42.864;23.360;2023-04-03T08:23:41;0.73;;;0.70;;
29168;SDS011;16219;42.864;23.360;2023-04-03T08:26:09;2.83;;;0.98;;
29168;SDS011;16219;42.864;23.360;2023-04-03T08:28:38;0.40;;;0.40;;
29168;SDS011;16219;42.864;23.360;2023-04-03T08:31:06;0.85;;;0.85;;
29168;SDS011;16219;42.864;23.360;2023-04-03T08:33:37;7.00;;;2.00;;
29168;SDS011;16219;42.864;23.360;2023-04-03T08:36:05;5.93;;;4.63;;
29168;SDS011;16219;42.864;23.360;2023-04-03T08:38:34;1.67;;;1.58;;
29168;SDS011;16219;42.864;23.360;2023-04-03T08:41:03;0.98;;;0.90;;
29168;SDS011;16219;42.864;23.360;2023-04-03T08:43:35;0.77;;;0.77;;
29168;SDS011;16219;42.864;23.360;2023-04-03T08:46:14;1.92;;;1.80;;
29168;SDS011;16219;42.864;23.360;2023-04-03T08:48:43;2.92;;;2.30;;
29168;SDS011;16219;42.864;23.360;2023-04-03T08:51:11;1.35;;;1.25;;
29168;SDS011;16219;42.864;23.360;2023-04-03T08:53:42;1.13;;;0.93;;
29168;SDS011;16219;42.864;23.360;2023-04-03T08:56:12;0.82;;;0.82;;
29168;SDS011;16219;42.864;23.360;2023-04-03T08:58:46;0.75;;;0.75;;
29168;SDS011;16219;42.864;23.360;2023-04-03T09:01:19;0.50;;;0.50;;
29168;SDS011;16219;42.864;23.360;2023-04-03T09:03:50;0.63;;;0.63;;
29168;SDS011;16219;42.864;23.360;2023-04-03T09:06:18;1.70;;;0.50;;
29168;SDS011;16219;42.864;23.360;2023-04-03T09:08:49;0.50;;;0.50;;
29168;SDS011;16219;42.864;23.360;2023-04-03T09:13:55;4.53;;;0.82;;
29168;SDS011;16219;42.864;23.360;2023-04-03T09:16:28;4.70;;;1.35;;
29168;SDS011;16219;42.864;23.360;2023-04-03T09:19:04;1.88;;;1.13;;
29168;SDS011;16219;42.864;23.360;2023-04-03T09:21:42;0.98;;;0.98;;
29168;SDS011;16219;42.864;23.360;2023-04-03T09:24:10;0.73;;;0.73;;
29168;SDS011;16219;42.864;23.360;2023-04-03T09:26:41;1.00;;;0.90;;
29168;SDS011;16219;42.864;23.360;2023-04-03T09:29:14;2.25;;;1.02;;
29168;SDS011;16219;42.864;23.360;2023-04-03T09:31:46;1.30;;;1.20;;
29168;SDS011;16219;42.864;23.360;2023-04-03T09:34:17;6.82;;;3.83;;
29168;SDS011;16219;42.864;23.360;2023-04-03T09:36:49;3.75;;;2.83;;
29168;SDS011;16219;42.864;23.360;2023-04-03T09:39:18;1.35;;;1.25;;
29168;SDS011;16219;42.864;23.360;2023-04-03T09:42:00;1.27;;;1.05;;
29168;SDS011;16219;42.864;23.360;2023-04-03T09:44:30;1.25;;;1.15;;
29168;SDS011;16219;42.864;23.360;2023-04-03T09:46:59;1.08;;;0.98;;
29168;SDS011;16219;42.864;23.360;2023-04-03T09:49:43;1.50;;;1.40;;
29168;SDS011;16219;42.864;23.360;2023-04-03T09:52:18;1.13;;;1.02;;
29168;SDS011;16219;42.864;23.360;2023-04-03T09:54:46;3.00;;;1.98;;
29168;SDS011;16219;42.864;23.360;2023-04-03T09:57:13;0.77;;;0.77;;
29168;SDS011;16219;42.864;23.360;2023-04-03T09:59:44;0.52;;;0.52;;
29168;SDS011;16219;42.864;23.360;2023-04-03T10:02:30;0.40;;;0.40;;
29168;SDS011;16219;42.864;23.360;2023-04-03T10:05:02;0.63;;;0.63;;
29168;SDS011;16219;42.864;23.360;2023-04-03T10:07:32;0.93;;;0.68;;
29168;SDS011;16219;42.864;23.360;2023-04-03T10:10:02;0.73;;;0.73;;
29168;SDS011;16219;42.864;23.360;2023-04-03T10:12:42;0.63;;;0.55;;
29168;SDS011;16219;42.864;23.360;2023-04-03T10:15:12;0.28;;;0.28;;
29168;SDS011;16219;42.864;23.360;2023-04-03T10:17:46;0.38;;;0.38;;
29168;SDS011;16219;42.864;23.360;2023-04-03T10:20:23;0.38;;;0.38;;
29168;SDS011;16219;42.864;23.360;2023-04-03T10:23:00;0.20;;;0.20;;
29168;SDS011;16219;42.864;23.360;2023-04-03T10:25:40;0.30;;;0.30;;
29168;SDS011;16219;42.864;23.360;2023-04-03T10:28:10;0.40;;;0.40;;
29168;SDS011;16219;42.864;23.360;2023-04-03T10:33:24;0.30;;;0.30;;
29168;SDS011;16219;42.864;23.360;2023-04-03T10:36:06;1.52;;;0.35;;
29168;SDS011;16219;42.864;23.360;2023-04-03T10:38:41;0.85;;;0.77;;
29168;SDS011;16219;42.864;23.360;2023-04-03T10:41:16;1.23;;;0.43;;
29168;SDS011;16219;42.864;23.360;2023-04-03T10:43:50;0.80;;;0.47;;
29168;SDS011;16219;42.864;23.360;2023-04-03T10:46:31;0.52;;;0.52;;
29168;SDS011;16219;42.864;23.360;2023-04-03T10:49:10;0.15;;;0.15;;
29168;SDS011;16219;42.864;23.360;2023-04-03T10:51:51;2.85;;;0.85;;
29168;SDS011;16219;42.864;23.360;2023-04-03T10:54:26;1.00;;;0.47;;
29168;SDS011;16219;42.864;23.360;2023-04-03T10:57:00;0.20;;;0.20;;
29168;SDS011;16219;42.864;23.360;2023-04-03T10:59:30;0.20;;;0.20;;
29168;SDS011;16219;42.864;23.360;2023-04-03T11:02:01;0.45;;;0.45;;
29168;SDS011;16219;42.864;23.360;2023-04-03T11:04:34;0.47;;;0.47;;
29168;SDS011;16219;42.864;23.360;2023-04-03T11:07:07;32.65;;;15.90;;
29168;SDS011;16219;42.864;23.360;2023-04-03T11:09:39;2.42;;;1.98;;
29168;SDS011;16219;42.864;23.360;2023-04-03T11:12:10;0.30;;;0.30;;
29168;SDS011;16219;42.864;23.360;2023-04-03T11:14:40;0.30;;;0.30;;
29168;SDS011;16219;42.864;23.360;2023-04-03T11:17:14;0.28;;;0.28;;
29168;SDS011;16219;42.864;23.360;2023-04-03T11:19:49;0.50;;;0.50;;
29168;SDS011;16219;42.864;23.360;2023-04-03T11:22:22;0.40;;;0.40;;
29168;SDS011;16219;42.864;23.360;2023-04-03T11:24:55;3.33;;;0.55;;
29168;SDS011;16219;42.864;23.360;2023-04-03T11:27:30;0.50;;;0.50;;
29168;SDS011;16219;42.864;23.360;2023-04-03T11:30:05;3.80;;;0.93;;
29168;SDS011;16219;42.864;23.360;2023-04-03T11:32:52;1.33;;;0.80;;
29168;SDS011;16219;42.864;23.360;2023-04-03T11:35:42;0.30;;;0.30;;
29168;SDS011;16219;42.864;23.360;2023-04-03T11:38:13;0.20;;;0.20;;
29168;SDS011;16219;42.864;23.360;2023-04-03T11:40:48;0.40;;;0.40;;
29168;SDS011;16219;42.864;23.360;2023-04-03T11:43:21;0.25;;;0.25;;
29168;SDS011;16219;42.864;23.360;2023-04-03T11:45:52;0.63;;;0.63;;
29168;SDS011;16219;42.864;23.360;2023-04-03T12:00:47;0.30;;;0.30;;
29168;SDS011;16219;42.864;23.360;2023-04-03T12:03:35;2.13;;;1.23;;
29168;SDS011;16219;42.864;23.360;2023-04-03T12:09:31;1.10;;;1.00;;
29168;SDS011;16219;42.864;23.360;2023-04-03T12:12:20;1.02;;;1.02;;
29168;SDS011;16219;42.864;23.360;2023-04-03T12:14:54;0.70;;;0.70;;
29168;SDS011;16219;42.864;23.360;2023-04-03T12:17:22;0.50;;;0.50;;
29168;SDS011;16219;42.864;23.360;2023-04-03T12:19:56;2.13;;;1.00;;
29168;SDS011;16219;42.864;23.360;2023-04-03T12:22:23;1.70;;;1.60;;
29168;SDS011;16219;42.864;23.360;2023-04-03T12:24:51;0.90;;;0.88;;
29168;SDS011;16219;42.864;23.360;2023-04-03T12:27:28;1.05;;;1.05;;
29168;SDS011;16219;42.864;23.360;2023-04-03T12:30:04;0.65;;;0.50;;
29168;SDS011;16219;42.864;23.360;2023-04-03T12:32:45;14.50;;;8.05;;
29168;SDS011;16219;42.864;23.360;2023-04-03T12:35:26;3.95;;;2.63;;
29168;SDS011;16219;42.864;23.360;2023-04-03T12:41:18;1.23;;;1.20;;
29168;SDS011;16219;42.864;23.360;2023-04-03T12:44:03;5.13;;;1.30;;
29168;SDS011;16219;42.864;23.360;2023-04-03T12:46:42;1.33;;;0.90;;
29168;SDS011;16219;42.864;23.360;2023-04-03T12:49:18;1.05;;;1.05;;
29168;SDS011;16219;42.864;23.360;2023-04-03T12:51:59;1.25;;;1.15;;
29168;SDS011;16219;42.864;23.360;2023-04-03T12:54:29;0.85;;;0.85;;
29168;SDS011;16219;42.864;23.360;2023-04-03T12:57:11;1.42;;;1.33;;
29168;SDS011;16219;42.864;23.360;2023-04-03T12:59:43;7.13;;;3.22;;
29168;SDS011;16219;42.864;23.360;2023-04-03T13:02:17;1.50;;;1.40;;
29168;SDS011;16219;42.864;23.360;2023-04-03T13:04:49;1.00;;;1.00;;
29168;SDS011;16219;42.864;23.360;2023-04-03T13:07:20;0.35;;;0.35;;
29168;SDS011;16219;42.864;23.360;2023-04-03T13:09:57;3.28;;;1.27;;
29168;SDS011;16219;42.864;23.360;2023-04-03T13:12:26;2.20;;;2.00;;
29168;SDS011;16219;42.864;23.360;2023-04-03T13:14:55;2.28;;;0.93;;
29168;SDS011;16219;42.864;23.360;2023-04-03T13:17:25;0.52;;;0.52;;
29168;SDS011;16219;42.864;23.360;2023-04-03T13:19:53;5.28;;;1.45;;
29168;SDS011;16219;42.864;23.360;2023-04-03T13:22:28;1.33;;;1.27;;
29168;SDS011;16219;42.864;23.360;2023-04-03T13:25:05;1.05;;;1.05;;
29168;SDS011;16219;42.864;23.360;2023-04-03T13:27:34;1.08;;;0.75;;
29168;SDS011;16219;42.864;23.360;2023-04-03T13:30:03;2.90;;;1.45;;
29168;SDS011;16219;42.864;23.360;2023-04-03T13:32:33;3.17;;;2.25;;
29168;SDS011;16219;42.864;23.360;2023-04-03T13:35:23;7.88;;;2.22;;
29168;SDS011;16219;42.864;23.360;2023-04-03T13:37:57;0.60;;;0.60;;
29168;SDS011;16219;42.864;23.360;2023-04-03T13:40:27;1.20;;;1.10;;
29168;SDS011;16219;42.864;23.360;2023-04-03T13:42:59;0.65;;;0.65;;
29168;SDS011;16219;42.864;23.360;2023-04-03T13:45:32;0.47;;;0.47;;
29168;SDS011;16219;42.864;23.360;2023-04-03T13:48:09;1.85;;;1.67;;
29168;SDS011;16219;42.864;23.360;2023-04-03T13:50:54;1.13;;;1.13;;
29168;SDS011;16219;42.864;23.360;2023-04-03T13:53:25;1.48;;;1.38;;
29168;SDS011;16219;42.864;23.360;2023-04-03T13:55:55;1.73;;;1.60;;
29168;SDS011;16219;42.864;23.360;2023-04-03T13:58:26;6.32;;;3.03;;
29168;SDS011;16219;42.864;23.360;2023-04-03T14:00:58;7.95;;;2.40;;
29168;SDS011;16219;42.864;23.360;2023-04-03T14:03:29;2.15;;;1.75;;
29168;SDS011;16219;42.864;23.360;2023-04-03T14:05:58;1.60;;;1.50;;
29168;SDS011;16219;42.864;23.360;2023-04-03T14:08:31;1.67;;;1.58;;
29168;SDS011;16219;42.864;23.360;2023-04-03T14:10:59;2.35;;;1.98;;
29168;SDS011;16219;42.864;23.360;2023-04-03T14:13:26;2.83;;;1.58;;
29168;SDS011;16219;42.864;23.360;2023-04-03T14:15:57;0.95;;;0.50;;
29168;SDS011;16219;42.864;23.360;2023-04-03T14:18:25;2.38;;;1.40;;
29168;SDS011;16219;42.864;23.360;2023-04-03T14:20:53;1.48;;;1.40;;
29168;SDS011;16219;42.864;23.360;2023-04-03T14:23:21;0.77;;;0.77;;
29168;SDS011;16219;42.864;23.360;2023-04-03T14:25:51;3.75;;;2.30;;
29168;SDS011;16219;42.864;23.360;2023-04-03T14:28:21;1.10;;;1.08;;
29168;SDS011;16219;42.864;23.360;2023-04-03T14:30:49;2.38;;;1.45;;
29168;SDS011;16219;42.864;23.360;2023-04-03T14:33:17;2.80;;;1.55;;
29168;SDS011;16219;42.864;23.360;2023-04-03T14:35:47;1.58;;;1.48;;
29168;SDS011;16219;42.864;23.360;2023-04-03T14:38:20;1.02;;;0.93;;
29168;SDS011;16219;42.864;23.360;2023-04-03T14:40:52;1.20;;;1.20;;
29168;SDS011;16219;42.864;23.360;2023-04-03T14:43:20;1.63;;;1.52;;
29168;SDS011;16219;42.864;23.360;2023-04-03T14:45:49;1.80;;;1.70;;
29168;SDS011;16219;42.864;23.360;2023-04-03T14:48:18;2.13;;;1.60;;
29168;SDS011;16219;42.864;23.360;2023-04-03T14:50:47;5.10;;;3.70;;
29168;SDS011;16219;42.864;23.360;2023-04-03T14:53:17;6.32;;;2.47;;
29168;SDS011;16219;42.864;23.360;2023-04-03T14:55:48;4.78;;;2.33;;
29168;SDS011;16219;42.864;23.360;2023-04-03T14:58:18;2.80;;;2.60;;
29168;SDS011;16219;42.864;23.360;2023-04-03T15:00:47;2.35;;;2.15;;
29168;SDS011;16219;42.864;23.360;2023-04-03T15:03:14;6.68;;;3.22;;
29168;SDS011;16219;42.864;23.360;2023-04-03T15:05:43;3.85;;;2.90;;
29168;SDS011;16219;42.864;23.360;2023-04-03T15:08:19;3.22;;;2.97;;
29168;SDS011;16219;42.864;23.360;2023-04-03T15:10:49;7.18;;;2.78;;
29168;SDS011;16219;42.864;23.360;2023-04-03T15:13:19;5.03;;;3.42;;
29168;SDS011;16219;42.864;23.360;2023-04-03T15:15:46;3.17;;;2.50;;